Latest Weather Observations for Tennant Creek

IDD60801

Issued at 4:31 pm CST Monday 2 March 2015 (issued every 30 minutes, with the page automatically refreshed every 10 minutes)

About weather observations | Map of weather stations | Latest weather observations for NT | Other Formats
Station Details ID: 015135 Name: TENNANT CREEK AIRPORT Lat: -19.64 Lon: 134.18 Height: 375.7 m
Data from the previous 72 hours. | See also: Recent months at Tennant Creek
Date/Time
CST
Temp
°C
App
Temp
°C
Dew
Point
Rel
Hum
%
Delta-T
°C
Wind Press
QNH
hPa
Press
MSL
hPa
Rain
since 9 am
mm
Dir
 
Spd
km/h
Gust
km/h
Spd
kts
Gust
kts
02/04:30pm 36.4 37.0 19.5 37 11.4 NNE 15 24 8 13 1005.7 - 0.0
02/04:00pm 35.9 37.2 18.5 36 11.6 E 9 20 5 11 1006.0 - 0.0
02/03:30pm 37.2 37.9 17.9 32 12.8 NE 11 20 6 11 1006.2 - 0.0
02/03:00pm 36.3 38.7 19.6 37 11.3 E 6 13 3 7 1006.4 1003.8 0.0
02/02:30pm 36.1 38.4 19.9 38 11.0 ESE 7 17 4 9 1006.7 - 0.0
02/02:00pm 35.5 38.0 20.2 40 10.4 N 7 17 4 9 1007.3 - 0.0
02/01:30pm 35.6 38.3 20.3 40 10.4 N 6 9 3 5 1007.9 - 0.0
02/01:00pm 34.8 37.1 20.7 43 9.6 ENE 9 17 5 9 1008.4 - 0.0
02/12:30pm 34.3 37.3 21.2 46 9.0 NNE 7 20 4 11 1009.0 - 0.0
02/12:00pm 33.7 36.1 21.6 49 8.3 N 11 20 6 11 1009.5 1006.8 0.0
02/11:30am 34.0 36.2 21.1 47 8.8 NNW 11 30 6 16 1009.7 - 0.0
02/11:00am 32.9 35.7 21.5 51 7.8 NE 9 15 5 8 1009.9 - 0.0
02/10:30am 32.5 36.0 22.2 54 7.1 ENE 7 13 4 7 1010.2 - 0.0
02/10:00am 32.4 35.9 22.9 57 6.6 NNE 9 15 5 8 1010.2 - 0.0
02/09:30am 31.3 34.9 23.1 61 5.7 NNE 9 17 5 9 1010.1 - 0.0
02/09:00am 30.9 33.0 22.5 61 5.8 NNE 15 24 8 13 1009.9 1007.2 0.0
02/08:30am 30.1 33.5 22.7 64 5.1 NE 9 15 5 8 1009.7 - 0.0
02/08:00am 29.0 33.0 23.1 70 4.1 E 7 9 4 5 1009.5 - 0.0
02/07:30am 27.9 31.5 23.1 75 3.3 ESE 9 11 5 6 1009.4 - 0.0
02/07:00am 26.8 31.1 23.3 81 2.4 ESE 6 9 3 5 1009.0 - 0.0
02/06:30am 26.3 30.5 23.1 82 2.2 ESE 6 7 3 4 1008.5 - 0.0
02/06:00am 26.1 30.3 23.4 85 1.9 E 7 9 4 5 1008.2 1005.5 0.0
02/05:30am 26.1 30.3 23.2 84 2.0 E 6 7 3 4 1008.0 - 0.0
02/05:00am 26.6 30.5 23.0 80 2.5 E 7 9 4 5 1007.7 - 0.0
02/04:30am 26.8 30.9 23.0 79 2.6 ESE 6 7 3 4 1007.4 - 0.0
02/04:00am 27.1 32.2 22.7 77 3.0 CALM 0 0 0 0 1007.5 - 0.0
02/03:30am 27.6 32.6 22.5 74 3.5 CALM 0 0 0 0 1007.4 - 0.0
02/03:00am 27.7 32.0 22.6 74 3.5 NW 4 7 2 4 1007.4 1004.7 0.0
02/02:30am 27.9 31.7 22.8 74 3.5 N 7 9 4 5 1007.5 - 0.0
02/02:00am 28.1 31.1 22.7 72 3.7 N 11 17 6 9 1007.7 - 0.0
02/01:30am 28.2 31.4 23.0 73 3.6 N 11 17 6 9 1007.8 - 0.0
02/01:00am 28.6 30.9 22.8 71 4.0 N 15 20 8 11 1008.0 - 0.0
02/12:30am 28.6 30.5 22.7 70 4.1 N 17 24 9 13 1008.1 - 0.0
02/12:00am 29.0 30.9 22.8 69 4.3 NNE 17 26 9 14 1008.5 1005.9 0.0
 
Date/Time
CST
Temp
°C
App
Temp
°C
Dew
Point
Rel
Hum
%
Delta-T
°C
Wind Press
QNH
hPa
Press
MSL
hPa
Rain
since 9 am
mm
Dir
 
Spd
km/h
Gust
km/h
Spd
kts
Gust
kts
01/11:30pm 29.2 31.5 22.8 68 4.4 NNE 15 24 8 13 1008.7 - 0.0
01/11:00pm 29.6 31.9 22.7 66 4.8 NNE 15 24 8 13 1008.3 - 0.0
01/10:30pm 30.0 31.4 22.6 64 5.1 N 19 26 10 14 1008.0 - 0.0
01/10:00pm 30.5 32.0 22.7 63 5.4 N 19 24 10 13 1007.6 - 0.0
01/09:30pm 31.2 32.4 22.5 60 6.0 N 20 28 11 15 1007.5 - 0.0
01/09:00pm 31.3 33.0 23.0 61 5.8 N 19 26 10 14 1007.2 1004.5 0.0
01/08:30pm 31.9 33.7 23.2 60 6.1 N 19 22 10 12 1006.9 - 0.0
01/08:00pm 32.5 35.2 23.5 59 6.3 N 15 24 8 13 1006.4 - 0.0
01/07:30pm 33.1 35.0 23.4 56 6.8 N 19 24 10 13 1006.3 - 0.0
01/07:00pm 34.1 35.8 22.3 50 8.2 N 17 22 9 12 1006.2 - 0.0
01/06:30pm 34.5 36.8 22.0 48 8.7 N 13 17 7 9 1005.8 - 0.0
01/06:00pm 34.6 35.9 21.6 46 9.0 N 17 22 9 12 1005.3 1002.6 0.0
01/05:30pm 35.1 36.7 20.8 43 9.8 NNW 13 17 7 9 1005.0 - 0.0
01/05:00pm 35.3 37.2 20.5 42 10.1 NW 11 22 6 12 1004.7 - 0.0
01/04:30pm 33.6 35.2 21.4 48 8.4 WNW 15 24 8 13 1004.8 - 0.0
01/04:00pm 36.1 37.6 20.6 40 10.6 NNW 13 17 7 9 1004.8 - 0.0
01/03:30pm 36.7 39.1 19.7 37 11.5 NE 6 15 3 8 1005.3 - 0.0
01/03:00pm 37.4 39.3 19.7 35 12.0 SW 9 13 5 7 1005.6 1002.9 0.0
01/02:30pm 37.0 39.0 18.8 34 12.2 SSW 6 13 3 7 1005.8 - 0.0
01/02:00pm 37.1 39.4 19.9 36 11.7 S 7 13 4 7 1006.1 - 0.0
01/01:30pm 37.3 38.6 19.2 34 12.2 ESE 11 15 6 8 1006.4 - 0.0
01/01:00pm 36.7 38.2 18.8 35 12.0 NNW 9 20 5 11 1007.1 - 0.0
01/12:30pm 35.9 38.0 19.0 37 11.3 S 6 11 3 6 1007.6 - 0.0
01/12:00pm 36.0 37.8 19.5 38 11.1 SE 9 17 5 9 1008.0 1005.3 0.0
01/11:30am 35.9 38.4 19.8 39 10.9 SSW 6 11 3 6 1008.0 - 0.0
01/11:00am 34.4 36.6 19.7 42 9.9 ESE 7 9 4 5 1008.4 - 0.0
01/10:30am 33.8 35.7 19.8 43 9.4 WSW 9 15 5 8 1008.5 - 0.0
01/10:00am 32.2 32.8 18.5 44 9.0 SW 13 20 7 11 1008.5 - 0.0
01/09:30am 32.3 33.4 18.1 42 9.3 W 9 13 5 7 1008.3 - 0.0
01/09:00am 31.3 32.1 18.1 45 8.6 W 11 15 6 8 1008.0 1005.3 0.0
01/08:30am 29.6 31.5 19.0 53 7.0 WNW 7 9 4 5 1007.8 - 0.0
01/08:00am 27.9 29.8 18.9 58 5.9 W 7 11 4 6 1007.6 - 0.0
01/07:30am 26.7 28.3 19.2 63 4.9 W 9 13 5 7 1007.3 - 0.0
01/07:00am 25.6 27.2 19.2 67 4.2 WNW 9 15 5 8 1006.9 - 0.0
01/06:30am 25.1 26.4 19.4 70 3.7 WNW 11 15 6 8 1006.6 - 0.0
01/06:00am 25.2 26.9 19.4 70 3.8 WNW 9 13 5 7 1006.0 1003.3 0.0
01/05:30am 25.8 27.2 19.6 68 4.1 W 11 15 6 8 1006.1 - 0.0
01/05:00am 26.3 27.7 20.3 69 4.0 W 13 22 7 12 1006.1 - 0.0
01/04:30am 26.7 28.4 21.0 71 3.8 W 13 17 7 9 1005.8 - 0.0
01/04:00am 27.3 27.9 21.1 69 4.2 W 19 26 10 14 1006.0 - 0.0
01/03:30am 26.9 28.9 20.8 69 4.1 WNW 11 13 6 7 1005.9 - 0.0
01/03:00am 26.9 29.2 20.6 68 4.2 WNW 9 13 5 7 1005.8 1003.1 0.0
01/02:30am 27.5 28.9 21.0 67 4.4 WNW 15 26 8 14 1006.1 - 0.0
01/02:00am 27.3 29.0 23.0 77 3.0 WSW 19 24 10 13 1006.2 - 0.0
01/01:30am 29.7 32.3 22.0 63 5.3 W 11 17 6 9 1006.4 - 0.0
01/01:00am 30.3 31.9 21.5 59 6.0 NW 15 26 8 14 1006.3 - 0.0
01/12:30am 30.6 32.8 21.2 57 6.4 NW 11 17 6 9 1006.3 - 0.0
01/12:00am 31.0 32.7 21.0 55 6.8 NNW 13 17 7 9 1006.6 1003.6 0.0
 
Date/Time
CST
Temp
°C
App
Temp
°C
Dew
Point
Rel
Hum
%
Delta-T
°C
Wind Press
QNH
hPa
Press
MSL
hPa
Rain
since 9 am
mm
Dir
 
Spd
km/h
Gust
km/h
Spd
kts
Gust
kts
28/11:30pm 31.1 33.2 20.9 54 6.9 NNW 11 15 6 8 1006.9 - 0.0
28/11:00pm 30.8 33.0 21.1 56 6.6 NNW 11 13 6 7 1006.9 - 0.0
28/10:30pm 30.8 32.9 20.9 55 6.7 NNW 11 15 6 8 1006.9 - 0.0
28/10:00pm 31.0 33.2 21.2 56 6.7 NNW 11 13 6 7 1007.1 - 0.0
28/09:30pm 30.9 33.7 21.5 57 6.4 NW 9 11 5 6 1006.9 - 0.0
28/09:00pm 31.1 33.8 21.3 56 6.7 NNW 9 11 5 6 1006.1 1003.2 0.0
28/08:30pm 31.2 34.4 21.6 56 6.6 NW 7 9 4 5 1006.0 - 0.0
28/08:00pm 31.7 34.4 21.3 54 7.1 NW 9 11 5 6 1005.7 - 0.0
28/07:30pm 32.4 35.4 21.3 52 7.6 WNW 7 9 4 5 1005.6 - 0.0
28/07:00pm 33.2 35.8 21.2 49 8.2 WNW 9 13 5 7 1005.5 - 0.0
28/06:30pm 34.0 35.5 20.6 45 9.1 W 13 17 7 9 1005.5 - 0.0
28/06:00pm 34.9 35.3 19.8 41 10.2 WSW 17 26 9 14 1005.3 1002.3 0.0
28/05:30pm 35.9 36.3 19.8 39 10.9 W 17 26 9 14 1005.2 - 0.0
28/05:00pm 36.0 37.5 20.5 40 10.6 W 13 20 7 11 1005.0 - 0.0
28/04:30pm 36.4 37.7 20.8 40 10.7 W 15 24 8 13 1005.0 - 0.0
28/04:00pm 35.9 36.2 19.6 38 11.0 W 17 28 9 15 1005.2 - 0.0
28/03:30pm 35.9 35.8 20.0 39 10.8 W 20 30 11 16 1005.4 - 0.0
28/03:00pm 35.4 36.1 20.4 41 10.2 W 17 24 9 13 1005.7 1002.7 0.0
28/02:30pm 35.1 35.1 20.1 41 10.2 W 20 32 11 17 1005.8 - 0.0
28/02:00pm 34.6 34.1 20.0 42 9.9 W 22 30 12 16 1006.4 - 0.0
28/01:30pm 33.6 33.2 20.1 45 9.1 W 22 32 12 17 1007.1 - 0.0
28/01:00pm 33.7 33.4 20.4 45 9.0 WSW 22 32 12 17 1007.6 - 0.0
28/12:30pm 33.5 32.1 20.5 46 8.8 W 28 41 15 22 1008.2 - 0.0
28/12:00pm 32.3 31.4 20.6 50 7.9 W 26 33 14 18 1008.6 1005.7 0.0
28/11:30am 32.6 32.0 20.5 49 8.2 WNW 24 35 13 19 1008.9 - 0.0
28/11:00am 31.8 30.6 20.9 52 7.4 W 28 43 15 23 1009.4 - 0.0
28/10:30am 30.7 30.0 21.1 56 6.5 WNW 26 39 14 21 1010.1 - 0.0
28/10:00am 30.0 30.3 20.8 57 6.2 NW 20 32 11 17 1010.5 - 0.0
28/09:30am 29.2 29.6 20.9 61 5.6 NNW 20 30 11 16 1010.5 - 0.0
28/09:00am 28.6 28.9 20.7 62 5.3 N 20 28 11 15 1010.3 1007.3 0.0
28/08:30am 27.4 27.9 20.0 64 4.9 NNW 17 24 9 13 1010.0 - 0.0
28/08:00am 27.5 26.8 19.6 62 5.2 N 22 33 12 18 1009.6 - 0.0
28/07:30am 26.6 26.5 19.9 66 4.4 N 20 30 11 16 1009.2 - 0.0
28/07:00am 27.0 27.4 20.7 68 4.2 N 19 28 10 15 1008.3 - 0.0
28/06:30am 27.0 28.3 22.6 77 3.0 N 20 30 11 16 1008.1 - 0.0
28/06:00am 28.2 30.3 21.7 68 4.4 NNW 13 17 7 9 1007.5 1004.5 0.0
28/05:30am 28.3 30.6 22.0 68 4.3 N 13 20 7 11 1007.1 - 0.0
28/05:00am 28.9 31.3 21.6 64 5.0 NNW 11 22 6 12 1006.2 - 0.0
28/04:30am 29.0 31.3 22.0 66 4.8 N 13 17 7 9 1006.0 - 0.0
28/04:00am 29.3 32.7 22.0 64 5.0 N 7 11 4 6 1005.9 - 0.0
28/03:30am 29.3 32.8 22.2 65 4.9 N 7 9 4 5 1005.7 - 0.0
28/03:00am 29.3 32.6 21.8 64 5.1 N 7 9 4 5 1005.9 1003.0 0.0
28/02:30am 29.0 32.5 21.8 65 4.9 NW 6 9 3 5 1005.9 - 0.0
28/02:00am 28.9 32.1 21.6 64 5.0 NW 7 9 4 5 1005.9 - 0.0
28/01:30am 29.2 32.3 21.4 63 5.3 NW 7 13 4 7 1006.1 - 0.0
28/01:00am 29.3 31.8 21.0 61 5.6 NW 9 13 5 7 1006.7 - 0.0
28/12:30am 29.3 31.8 21.0 61 5.6 NW 9 11 5 6 1007.1 - 0.0
28/12:13am 29.4 32.4 21.3 61 5.5 WNW 7 9 4 5 1007.4 - 0.0
28/12:00am 29.9 32.8 21.0 59 6.0 W 7 9 4 5 1007.4 1004.4 0.0
 
Date/Time
CST
Temp
°C
App
Temp
°C
Dew
Point
Rel
Hum
%
Delta-T
°C
Wind Press
QNH
hPa
Press
MSL
hPa
Rain
since 9 am
mm
Dir
 
Spd
km/h
Gust
km/h
Spd
kts
Gust
kts
27/11:59pm 29.9 32.8 21.0 59 6.0 W 7 9 4 5 1007.4 - 0.0
27/11:30pm 30.2 32.9 20.7 56 6.4 NW 7 9 4 5 1007.6 - 0.0
27/11:00pm 30.8 33.1 20.6 54 6.9 WNW 9 17 5 9 1007.7 - 0.0
27/10:30pm 31.2 33.7 20.2 52 7.4 WNW 7 11 4 6 1007.5 - 0.0
27/10:00pm 31.5 33.4 19.7 49 7.9 NW 9 11 5 6 1007.3 - 0.0
27/09:30pm 32.5 34.6 20.2 48 8.3 W 9 15 5 8 1007.1 - 0.0
27/09:00pm 33.4 36.6 20.4 46 8.8 NNE 4 9 2 5 1006.8 1003.8 0.0
27/08:30pm 33.3 35.5 19.6 44 9.2 N 7 13 4 7 1006.1 - 0.0
27/08:00pm 33.3 35.7 19.6 44 9.2 WSW 6 9 3 5 1005.6 - 0.0
27/07:30pm 33.2 34.6 19.5 44 9.2 SW 11 17 6 9 1004.7 - 0.0
27/07:00pm 35.3 37.9 20.1 41 10.3 WSW 6 7 3 4 1004.9 - 0.0
27/06:30pm 36.5 38.4 18.5 34 12.0 W 6 9 3 5 1004.9 - 0.0
27/06:00pm 36.7 37.3 17.8 32 12.5 W 11 17 6 9 1004.6 1001.6 0.0
27/05:30pm 37.1 37.8 18.0 32 12.6 NNW 11 17 6 9 1004.3 - 0.0
27/05:00pm 36.5 38.6 18.9 35 11.8 SSE 6 11 3 6 1004.1 - 0.0

Other Formats:

Comma delimited format used in spreadsheet applications
http://www.bom.gov.au/fwo/IDD60801/IDD60801.94238.axf

JavaScript Object Notation format (JSON) in row-major order
http://www.bom.gov.au/fwo/IDD60801/IDD60801.94238.json